Harrisonville, NJ (08039)

7:21 AM EST on December 27, 2014 (GMT -0500)
Mullica Hill | Change Station
CLOSE
Current Station
Personal Weather Station
Location: Harrison Township, NJ
Elevation: 79 ft
Nearby Weather Stations

Elev 79 ft 39.74 °N, 75.26 °W | Updated 12 minutes ago

Partly Cloudy
Partly Cloudy
27.7 °F
Feels Like 28 °F
N
1.1
Wind Variable Wind from ESE

Today
High -- | Low -- °F
--% Chance of Precip.
Yesterday
High -- | Low -- °F
Precip. -- in
7:20 AM 4:43 PM
Waxing Crescent, 36% visible
Pressure 30.27 in
Visibility 9.0 miles
Clouds Scattered Clouds 18000 ft
Mostly Cloudy 25000 ft
Windchill 28 °F
Dew Point 28 °F
Humidity 100%
Rainfall 0.00 in
Snow Depth Not available.
UV 0 out of 12
Pollen .10 out of 12
Air Quality Not available.
Flu Activity Not available.
METAR KPHL 271154Z 24003KT 9SM SCT180 BKN250 02/M01 A3027 RMK AO2 SLP251 T00171006 10028 20000 53009

More Conditions Fewer Conditions

Pressure 30.27 in
Visibility 9.0 miles
Clouds Scattered Clouds 18000 ft
Mostly Cloudy 25000 ft
Windchill 28 °F
Dew Point 28 °F
Humidity 100%
Rainfall 0.00 in
Snow Depth Not available.
UV 0 out of 12
Pollen .10 out of 12
Air Quality Not available.
Flu Activity Not available.
METAR KPHL 271154Z 24003KT 9SM SCT180 BKN250 02/M01 A3027 RMK AO2 SLP251 T00171006 10028 20000 53009

More Conditions Fewer Conditions

10-Day Weather Forecast

Almanac

Astronomy

Dec. 27, 2014 Rise Set
Actual Time
Civil Twilight
Nautical Twilight
Astronomical Twilight
Moon
Length of Visible Light
Length of Day
Tomorrow will be .
, % of the Moon is Illuminated

Today's Extremes

State Highs State Lows

Community

WunderPhotos

Upload Photos

1,780,886 photos uploaded!

WunderBlogs® & News

Nearby

Air Quality

  Air Quality AQ Index Pollutant
Not available.

Snow Depth

Station Depth Elevation

Earthquake Activity

City Distance Mag. Time & Date
Minimum magnitude displayed is 2.5.

Coastal Water Temperatures

Place Temperature

Nearby Weather Stations